Time;durP1;ratioP1;P1;durP2;ratioP2;P2;SDS_P1;SDS_P2;PMS_P1;PMS_P2;Temp;Humidity;BMP_temperature;BMP_pressure;BME280_temperature;BME280_humidity;BME280_pressure;Samples;Min_cycle;Max_cycle;Signal;HPM_P1;HPM_P2
2024/03/22 00:00:14;;;;;;;4.63;1.70;;;15.50;96.30;;;;;;4134295;28;20072;-54
2024/03/22 00:02:16;;;;;;;4.55;1.70;;;15.50;96.20;;;;;;4132695;28;20056;-52
2024/03/22 00:04:18;;;;;;;4.75;1.15;;;15.50;96.30;;;;;;4132474;28;20401;-52
2024/03/22 00:06:21;;;;;;;2.03;1.27;;;15.50;96.10;;;;;;4132329;28;20055;-53
2024/03/22 00:08:22;;;;;;;5.68;1.15;;;15.50;96.30;;;;;;4132408;28;20046;-52
2024/03/22 00:10:24;;;;;;;4.00;1.90;;;15.40;96.50;;;;;;4132542;28;20110;-52
2024/03/22 00:12:25;;;;;;;2.72;1.27;;;15.30;96.30;;;;;;4132543;28;20050;-53
2024/03/22 00:14:27;;;;;;;3.72;1.33;;;15.30;96.40;;;;;;4132462;28;20552;-53
2024/03/22 00:16:29;;;;;;;2.88;1.65;;;15.40;96.40;;;;;;4132318;28;20144;-53
2024/03/22 00:18:30;;;;;;;5.85;1.95;;;15.30;96.40;;;;;;4132202;28;20058;-54
2024/03/22 00:20:32;;;;;;;5.13;2.13;;;15.30;96.30;;;;;;4132229;28;20054;-55
2024/03/22 00:22:35;;;;;;;3.25;1.65;;;15.30;96.50;;;;;;4132582;28;20046;-53
2024/03/22 00:24:37;;;;;;;3.67;1.77;;;15.20;96.60;;;;;;4132149;28;20056;-56
2024/03/22 00:26:39;;;;;;;1.73;1.35;;;15.10;96.70;;;;;;4132199;28;20490;-54
2024/03/22 00:28:40;;;;;;;6.30;2.55;;;15.10;97.00;;;;;;4132278;28;20064;-55
2024/03/22 00:30:42;;;;;;;2.75;1.63;;;15.10;96.80;;;;;;4131739;28;20057;-55
2024/03/22 00:32:44;;;;;;;3.65;1.80;;;15.20;96.80;;;;;;4132158;28;20163;-54
2024/03/22 00:34:46;;;;;;;6.13;1.67;;;15.10;96.90;;;;;;4132079;28;20046;-55
2024/03/22 00:36:47;;;;;;;2.75;1.42;;;15.20;96.80;;;;;;4132157;28;20050;-53
2024/03/22 00:38:50;;;;;;;1.90;1.05;;;15.10;96.90;;;;;;4132113;28;20055;-54
2024/03/22 00:40:52;;;;;;;2.40;1.23;;;15.10;96.80;;;;;;4132091;28;20077;-54
2024/03/22 00:42:53;;;;;;;3.85;1.90;;;15.10;97.10;;;;;;4131786;28;20054;-55
2024/03/22 00:44:56;;;;;;;2.28;1.30;;;15.00;97.10;;;;;;4131945;28;20129;-55
2024/03/22 00:46:58;;;;;;;3.80;1.58;;;15.00;97.00;;;;;;4115207;28;20495;-55
2024/03/22 00:49:00;;;;;;;3.17;1.20;;;15.00;97.10;;;;;;4131785;28;20051;-55
2024/03/22 00:51:01;;;;;;;3.42;2.00;;;15.00;96.90;;;;;;4131491;28;20050;-55
2024/03/22 00:53:05;;;;;;;1.65;1.20;;;14.90;97.10;;;;;;4131646;28;20054;-55
2024/03/22 00:55:08;;;;;;;5.03;2.10;;;14.80;97.30;;;;;;4131560;28;20513;-54
2024/03/22 00:57:10;;;;;;;4.40;2.38;;;14.90;97.30;;;;;;4131631;28;20046;-54
2024/03/22 00:59:11;;;;;;;2.17;1.40;;;14.90;97.30;;;;;;4131493;28;20046;-54
2024/03/22 01:01:13;;;;;;;3.85;2.05;;;14.90;97.30;;;;;;4131382;28;20050;-54
2024/03/22 01:03:14;;;;;;;3.35;1.55;;;14.80;97.10;;;;;;4131558;28;20054;-54
2024/03/22 01:05:16;;;;;;;3.63;1.67;;;14.80;97.40;;;;;;4131708;28;20543;-54
2024/03/22 01:07:18;;;;;;;6.80;3.08;;;14.80;97.20;;;;;;4131807;28;20058;-54
2024/03/22 01:09:19;;;;;;;5.60;1.38;;;14.80;97.40;;;;;;4131682;28;20046;-54
2024/03/22 01:11:22;;;;;;;4.93;2.08;;;14.80;97.50;;;;;;4131714;28;20050;-55
2024/03/22 01:13:24;;;;;;;1.75;1.52;;;14.80;97.50;;;;;;4131796;28;20046;-56
2024/03/22 01:15:26;;;;;;;4.45;1.83;;;14.70;97.50;;;;;;4132923;28;20050;-60
2024/03/22 01:17:27;;;;;;;3.10;1.65;;;14.70;97.60;;;;;;4133294;28;20065;-59
2024/03/22 01:19:29;;;;;;;2.47;1.20;;;14.80;97.60;;;;;;4133508;28;20084;-62
2024/03/22 01:21:30;;;;;;;2.92;1.65;;;14.80;97.20;;;;;;4132383;28;20092;-54
2024/03/22 01:23:32;;;;;;;5.38;2.78;;;14.60;97.50;;;;;;4131237;28;20076;-55
2024/03/22 01:25:34;;;;;;;3.97;1.20;;;14.60;97.60;;;;;;4131429;28;20055;-55
2024/03/22 01:27:37;;;;;;;6.60;2.63;;;14.60;97.90;;;;;;4130986;28;20061;-55
2024/03/22 01:29:38;;;;;;;4.45;1.92;;;14.70;97.50;;;;;;4131019;28;20050;-55
2024/03/22 01:31:40;;;;;;;1.75;1.08;;;14.60;97.30;;;;;;4131093;28;20051;-55
2024/03/22 01:33:41;;;;;;;3.53;1.83;;;14.60;97.30;;;;;;4130992;28;20049;-54
2024/03/22 01:35:43;;;;;;;2.30;1.55;;;14.60;97.60;;;;;;4130969;28;20054;-56
2024/03/22 01:37:45;;;;;;;3.25;1.70;;;14.50;97.40;;;;;;4130981;28;20062;-55
2024/03/22 01:39:46;;;;;;;1.90;1.50;;;14.60;97.50;;;;;;4130904;28;20046;-55
2024/03/22 01:41:48;;;;;;;3.83;1.58;;;14.50;97.50;;;;;;4131133;28;20051;-55
2024/03/22 01:43:51;;;;;;;4.43;1.52;;;14.50;97.60;;;;;;4130604;28;20053;-54
2024/03/22 01:45:53;;;;;;;1.85;1.17;;;14.50;97.70;;;;;;4130874;28;20056;-55
2024/03/22 01:47:57;;;;;;;2.23;1.23;;;14.50;97.60;;;;;;4130989;28;20050;-55
2024/03/22 01:49:59;;;;;;;2.25;1.25;;;14.40;97.80;;;;;;4131027;28;20054;-54
2024/03/22 01:52:00;;;;;;;2.38;1.65;;;14.40;97.60;;;;;;4130856;28;20059;-54
2024/03/22 01:54:04;;;;;;;2.47;1.50;;;14.50;97.40;;;;;;4131008;28;20514;-54
2024/03/22 01:56:07;;;;;;;2.72;1.58;;;14.40;97.50;;;;;;4130713;28;20109;-54
2024/03/22 01:58:09;;;;;;;2.92;1.55;;;14.40;97.60;;;;;;4130387;28;20054;-54
2024/03/22 02:00:13;;;;;;;5.95;1.70;;;14.40;97.80;;;;;;4130561;28;20058;-55
2024/03/22 02:02:15;;;;;;;2.33;1.67;;;14.40;97.70;;;;;;4130692;28;20050;-55
2024/03/22 02:04:16;;;;;;;7.32;1.67;;;14.40;97.80;;;;;;4114265;28;20106;-55
2024/03/22 02:06:18;;;;;;;3.13;1.73;;;14.50;97.90;;;;;;4130685;28;20080;-55
2024/03/22 02:08:19;;;;;;;2.25;1.45;;;14.40;97.60;;;;;;4130691;28;20432;-55
2024/03/22 02:10:21;;;;;;;1.70;1.25;;;14.40;97.50;;;;;;4130436;28;20052;-55
2024/03/22 02:12:22;;;;;;;1.85;1.50;;;14.30;97.80;;;;;;4129990;28;20060;-54
2024/03/22 02:14:25;;;;;;;4.82;2.17;;;14.40;98.00;;;;;;4130650;28;20050;-54
2024/03/22 02:16:28;;;;;;;4.45;2.33;;;14.40;97.70;;;;;;4130415;28;20068;-54
2024/03/22 02:18:29;;;;;;;4.00;1.90;;;14.40;97.70;;;;;;4130478;28;20055;-54
2024/03/22 02:20:30;;;;;;;6.55;1.90;;;14.30;97.80;;;;;;4130621;28;20528;-55
2024/03/22 02:22:32;;;;;;;5.82;1.63;;;14.30;97.50;;;;;;4130285;28;20046;-55
2024/03/22 02:24:34;;;;;;;3.60;1.90;;;14.30;97.70;;;;;;4130397;28;20049;-55
2024/03/22 02:26:36;;;;;;;2.92;1.77;;;14.20;97.60;;;;;;4130000;28;20050;-55
2024/03/22 02:28:37;;;;;;;3.85;1.67;;;14.10;97.80;;;;;;4113409;28;20053;-54
2024/03/22 02:30:38;;;;;;;3.45;1.90;;;14.10;98.00;;;;;;4131042;28;20054;-55
2024/03/22 02:32:40;;;;;;;6.68;1.65;;;14.10;97.80;;;;;;4130458;28;20057;-54
2024/03/22 02:34:41;;;;;;;7.80;3.60;;;14.10;98.10;;;;;;4114206;28;20050;-54
2024/03/22 02:36:43;;;;;;;5.72;2.38;;;14.10;98.40;;;;;;4130262;28;20462;-55
2024/03/22 02:38:44;;;;;;;4.38;2.28;;;14.10;98.00;;;;;;4130335;28;20050;-54
2024/03/22 02:40:47;;;;;;;5.82;2.53;;;14.10;98.50;;;;;;4130165;28;20514;-54
2024/03/22 02:42:49;;;;;;;5.05;1.52;;;14.00;98.50;;;;;;4129766;28;20054;-54
2024/03/22 02:44:50;;;;;;;10.38;1.60;;;13.90;98.30;;;;;;4114122;28;20059;-55
2024/03/22 02:46:51;;;;;;;3.40;1.45;;;14.00;98.30;;;;;;4129925;28;20056;-53
2024/03/22 02:48:53;;;;;;;2.80;1.30;;;14.00;98.20;;;;;;4130155;28;20058;-52
2024/03/22 02:50:56;;;;;;;2.83;1.25;;;14.00;98.30;;;;;;4130291;28;20058;-53
2024/03/22 02:52:57;;;;;;;2.92;2.17;;;14.00;98.50;;;;;;4130396;28;20050;-55
2024/03/22 02:54:58;;;;;;;3.20;1.63;;;14.00;98.20;;;;;;4130134;28;20092;-52
2024/03/22 02:57:02;;;;;;;2.00;1.30;;;14.00;98.20;;;;;;4129978;28;20054;-54
2024/03/22 02:59:03;;;;;;;4.10;2.28;;;14.00;98.60;;;;;;4130297;28;20057;-53
2024/03/22 03:01:05;;;;;;;2.80;2.08;;;13.90;98.10;;;;;;4130851;28;20050;-53
2024/03/22 03:03:07;;;;;;;5.03;2.47;;;13.90;98.50;;;;;;4132093;28;20536;-55
2024/03/22 03:05:09;;;;;;;2.75;1.55;;;13.90;98.40;;;;;;4132098;28;20084;-54
2024/03/22 03:07:11;;;;;;;3.03;1.50;;;13.90;98.50;;;;;;4130593;28;20048;-53
2024/03/22 03:09:12;;;;;;;2.90;1.70;;;13.80;98.50;;;;;;4130803;28;20073;-53
2024/03/22 03:11:14;;;;;;;2.25;1.20;;;13.90;98.60;;;;;;4130523;28;20468;-53
2024/03/22 03:13:17;;;;;;;3.67;1.65;;;14.00;98.50;;;;;;4130630;28;20058;-52
2024/03/22 03:15:18;;;;;;;3.58;1.38;;;14.00;98.40;;;;;;4130002;28;20412;-54
2024/03/22 03:17:20;;;;;;;3.70;1.40;;;13.90;98.40;;;;;;4130160;28;20056;-54
2024/03/22 03:19:21;;;;;;;2.20;1.42;;;14.00;98.60;;;;;;4130007;28;20068;-55
2024/03/22 03:21:24;;;;;;;3.63;1.95;;;13.90;98.20;;;;;;4130204;28;20528;-52
2024/03/22 03:23:25;;;;;;;4.43;2.33;;;13.90;98.40;;;;;;4130201;28;20065;-52
2024/03/22 03:25:26;;;;;;;8.68;2.33;;;13.90;98.60;;;;;;4113896;28;20577;-52
2024/03/22 03:27:28;;;;;;;3.67;1.80;;;13.90;98.40;;;;;;4130028;28;20050;-57
2024/03/22 03:29:30;;;;;;;3.85;2.10;;;13.80;98.70;;;;;;4129987;28;20043;-56
2024/03/22 03:31:32;;;;;;;3.05;1.55;;;13.70;98.60;;;;;;4129898;28;20455;-56
2024/03/22 03:33:33;;;;;;;3.75;1.67;;;13.80;98.60;;;;;;4130046;28;20054;-53
2024/03/22 03:35:35;;;;;;;2.53;1.50;;;13.80;98.60;;;;;;4129835;28;20043;-53
2024/03/22 03:37:36;;;;;;;6.80;1.80;;;13.80;98.60;;;;;;4129742;28;20051;-53
2024/03/22 03:39:38;;;;;;;3.03;1.83;;;13.90;98.50;;;;;;4130869;28;20054;-53
2024/03/22 03:41:40;;;;;;;2.90;1.95;;;13.90;98.50;;;;;;4132775;28;20054;-52
2024/03/22 03:43:41;;;;;;;2.55;1.65;;;13.80;98.60;;;;;;4116660;28;20051;-52
2024/03/22 03:45:44;;;;;;;4.18;2.05;;;13.80;98.40;;;;;;4132755;28;20058;-52
2024/03/22 03:47:45;;;;;;;2.72;1.70;;;13.80;98.50;;;;;;4132642;28;20428;-54
2024/03/22 03:49:47;;;;;;;5.55;1.83;;;13.80;98.50;;;;;;4132639;28;20047;-55
2024/03/22 03:51:49;;;;;;;1.90;1.45;;;13.80;98.40;;;;;;4132685;28;20062;-53
2024/03/22 03:53:50;;;;;;;4.45;2.83;;;13.80;98.20;;;;;;4132422;28;20054;-52
2024/03/22 03:55:51;;;;;;;5.95;2.38;;;13.70;98.30;;;;;;4132532;28;20054;-52
2024/03/22 03:57:53;;;;;;;3.90;1.48;;;13.70;98.30;;;;;;4132811;28;20048;-53
2024/03/22 03:59:54;;;;;;;3.33;1.90;;;13.70;98.50;;;;;;4132927;28;20522;-52
2024/03/22 04:01:57;;;;;;;3.58;1.95;;;13.60;98.30;;;;;;4132543;28;20060;-53
2024/03/22 04:03:58;;;;;;;2.83;1.77;;;13.50;98.50;;;;;;4132585;28;20053;-52
2024/03/22 04:06:00;;;;;;;3.58;1.90;;;13.50;98.80;;;;;;4132685;28;20046;-52
2024/03/22 04:08:02;;;;;;;4.32;2.65;;;13.50;98.40;;;;;;4132178;28;20516;-54
2024/03/22 04:10:04;;;;;;;2.20;1.42;;;13.60;98.50;;;;;;4132351;28;20060;-52
2024/03/22 04:12:06;;;;;;;3.60;1.58;;;13.60;98.70;;;;;;4132472;28;20050;-53
2024/03/22 04:14:07;;;;;;;3.20;2.10;;;13.70;98.40;;;;;;4132620;28;20054;-54
2024/03/22 04:16:08;;;;;;;2.33;1.58;;;13.60;98.50;;;;;;4133356;28;20109;-57
2024/03/22 04:18:11;;;;;;;1.60;1.10;;;13.60;98.60;;;;;;4132961;28;20383;-54
2024/03/22 04:20:13;;;;;;;3.38;2.22;;;13.70;98.40;;;;;;4132889;28;20061;-52
2024/03/22 04:22:14;;;;;;;4.10;1.92;;;13.70;98.40;;;;;;4133183;28;20047;-52
2024/03/22 04:24:15;;;;;;;4.63;1.55;;;13.70;98.40;;;;;;4132625;28;20516;-51
2024/03/22 04:26:17;;;;;;;3.45;1.95;;;13.70;98.60;;;;;;4133001;28;20050;-53
2024/03/22 04:28:18;;;;;;;3.67;1.63;;;13.60;98.40;;;;;;4117105;28;20072;-52
2024/03/22 04:30:20;;;;;;;6.32;1.70;;;13.60;98.70;;;;;;4132908;28;20510;-52
2024/03/22 04:32:21;;;;;;;3.30;1.52;;;13.50;98.50;;;;;;4132900;28;20050;-52
2024/03/22 04:34:24;;;;;;;2.28;1.63;;;13.40;98.70;;;;;;4135243;28;20051;-52
2024/03/22 04:36:25;;;;;;;2.42;1.52;;;13.40;98.70;;;;;;4134144;28;20215;-55
2024/03/22 04:38:28;;;;;;;6.65;3.92;;;13.40;98.80;;;;;;4134098;28;20072;-55
2024/03/22 04:40:30;;;;;;;5.10;2.30;;;13.40;98.90;;;;;;4132716;28;20059;-54
2024/03/22 04:42:31;;;;;;;2.00;1.40;;;13.40;98.90;;;;;;4132046;28;20050;-55
2024/03/22 04:44:33;;;;;;;3.53;1.45;;;13.40;99.10;;;;;;4136684;28;20042;-55
2024/03/22 04:46:34;;;;;;;2.70;1.38;;;13.50;98.70;;;;;;4131619;28;20387;-54
2024/03/22 04:48:36;;;;;;;2.05;1.52;;;13.40;98.80;;;;;;4132143;28;20051;-55
2024/03/22 04:50:38;;;;;;;2.95;2.13;;;13.40;98.90;;;;;;4131072;28;20403;-55
2024/03/22 04:52:40;;;;;;;3.22;1.77;;;13.50;99.00;;;;;;4130963;28;20058;-53
2024/03/22 04:54:41;;;;;;;3.25;1.58;;;13.50;99.00;;;;;;4131985;28;20064;-55
2024/03/22 04:56:43;;;;;;;8.77;3.42;;;13.50;98.70;;;;;;4131796;28;20052;-53
2024/03/22 04:58:44;;;;;;;4.43;2.42;;;13.50;98.80;;;;;;4131776;28;20165;-53
2024/03/22 05:00:46;;;;;;;2.55;2.00;;;13.40;98.80;;;;;;4115451;28;20055;-54
2024/03/22 05:02:48;;;;;;;2.50;1.73;;;13.40;98.90;;;;;;4131960;28;20058;-55
2024/03/22 05:04:49;;;;;;;1.98;1.63;;;13.30;98.90;;;;;;4131681;28;20498;-55
2024/03/22 05:06:52;;;;;;;4.82;2.40;;;13.20;99.10;;;;;;4131348;28;20054;-55
2024/03/22 05:08:53;;;;;;;4.88;1.75;;;13.30;99.30;;;;;;4131521;28;20056;-55
2024/03/22 05:10:54;;;;;;;4.25;1.90;;;13.40;99.40;;;;;;4131483;28;20054;-55
2024/03/22 05:12:56;;;;;;;3.40;1.67;;;13.30;99.20;;;;;;4132680;28;20054;-54
2024/03/22 05:14:57;;;;;;;5.10;1.65;;;13.30;99.30;;;;;;4133431;28;20053;-54
2024/03/22 05:16:59;;;;;;;2.47;1.30;;;13.30;99.30;;;;;;4132211;28;20417;-55
2024/03/22 05:19:00;;;;;;;3.83;1.80;;;13.40;99.30;;;;;;4131504;28;20054;-56
2024/03/22 05:21:01;;;;;;;7.57;2.78;;;13.40;99.20;;;;;;4131033;28;20517;-54
2024/03/22 05:23:07;;;;;;;4.85;3.08;;;13.30;99.00;;;;;;4131415;28;20080;-55
2024/03/22 05:25:09;;;;;;;2.35;1.80;;;13.30;99.10;;;;;;4132042;28;20054;-52
2024/03/22 05:27:10;;;;;;;1.80;1.67;;;13.40;99.10;;;;;;4132067;28;20042;-55
2024/03/22 05:29:12;;;;;;;3.03;1.50;;;13.40;98.80;;;;;;4132949;28;20100;-52
2024/03/22 05:31:13;;;;;;;2.30;1.45;;;13.40;99.00;;;;;;4132060;28;20072;-53
2024/03/22 05:33:14;;;;;;;2.55;1.73;;;13.30;99.20;;;;;;4131574;28;20076;-53
2024/03/22 05:35:16;;;;;;;2.25;1.20;;;13.20;99.00;;;;;;4114537;28;20055;-53
2024/03/22 05:37:18;;;;;;;2.45;1.63;;;13.20;99.30;;;;;;4131157;28;20529;-52
2024/03/22 05:39:20;;;;;;;3.92;1.98;;;13.10;99.10;;;;;;4130956;28;20090;-52
2024/03/22 05:41:22;;;;;;;2.05;1.38;;;13.10;99.30;;;;;;4131333;28;20128;-53
2024/03/22 05:43:24;;;;;;;4.95;1.50;;;13.20;99.50;;;;;;4131073;28;20505;-53
2024/03/22 05:45:25;;;;;;;3.35;1.45;;;13.20;99.40;;;;;;4115367;28;20043;-53
2024/03/22 05:47:26;;;;;;;4.32;2.13;;;13.20;99.40;;;;;;4131630;28;20458;-53
2024/03/22 05:49:28;;;;;;;6.03;1.92;;;13.20;99.30;;;;;;4131624;28;20054;-56
2024/03/22 05:51:30;;;;;;;2.05;1.42;;;13.20;99.40;;;;;;4131122;28;20050;-52
2024/03/22 05:53:31;;;;;;;8.18;2.22;;;13.20;99.30;;;;;;4131069;28;20042;-53
2024/03/22 05:55:34;;;;;;;6.45;2.38;;;13.20;99.50;;;;;;4131097;28;20043;-53
2024/03/22 05:57:35;;;;;;;3.30;1.50;;;13.20;99.30;;;;;;4131301;28;20263;-53
2024/03/22 05:59:40;;;;;;;2.00;1.25;;;13.20;99.20;;;;;;4130714;28;20052;-54
2024/03/22 06:01:41;;;;;;;4.45;2.08;;;13.10;99.60;;;;;;4114421;28;20054;-53
2024/03/22 06:03:43;;;;;;;2.80;1.50;;;13.10;99.30;;;;;;4130804;28;20051;-53
2024/03/22 06:05:44;;;;;;;5.40;1.85;;;13.20;99.80;;;;;;4130506;28;20054;-53
2024/03/22 06:07:46;;;;;;;3.40;1.90;;;13.20;99.30;;;;;;4130721;28;20066;-54
2024/03/22 06:09:49;;;;;;;3.05;1.50;;;13.00;99.40;;;;;;4131010;28;20054;-52
2024/03/22 06:11:52;;;;;;;5.68;3.00;;;13.00;99.40;;;;;;4130779;28;20050;-52
2024/03/22 06:13:53;;;;;;;3.72;1.77;;;13.00;99.50;;;;;;4130607;28;20054;-52
2024/03/22 06:15:55;;;;;;;3.13;1.73;;;13.00;99.80;;;;;;4130976;28;20050;-52
2024/03/22 06:17:56;;;;;;;3.95;2.22;;;13.00;99.50;;;;;;4114642;28;20084;-55
2024/03/22 06:19:58;;;;;;;4.60;1.50;;;13.00;99.70;;;;;;4130439;28;20050;-51
2024/03/22 06:21:59;;;;;;;4.35;1.42;;;13.00;99.60;;;;;;4130679;28;20097;-52
2024/03/22 06:24:01;;;;;;;6.18;1.75;;;12.90;99.50;;;;;;4130519;28;20532;-52
2024/03/22 06:26:02;;;;;;;5.15;2.25;;;13.00;99.80;;;;;;4130584;28;20564;-52
2024/03/22 06:28:06;;;;;;;3.60;1.88;;;12.90;99.80;;;;;;4130370;28;20050;-52
2024/03/22 06:30:07;;;;;;;4.82;2.03;;;12.90;99.90;;;;;;4130469;28;20060;-52
2024/03/22 06:32:09;;;;;;;4.50;1.90;;;12.90;99.90;;;;;;4131373;28;20100;-53
2024/03/22 06:34:10;;;;;;;6.35;2.70;;;12.90;99.90;;;;;;4132441;28;20051;-61
2024/03/22 06:36:11;;;;;;;3.65;1.92;;;13.00;99.90;;;;;;4115866;28;20418;-51
2024/03/22 06:38:13;;;;;;;2.55;1.80;;;13.10;99.90;;;;;;4132772;28;20528;-55
2024/03/22 06:40:15;;;;;;;4.60;1.95;;;13.00;99.80;;;;;;4132223;28;20050;-55
2024/03/22 06:42:17;;;;;;;4.93;2.47;;;13.00;99.90;;;;;;4132614;28;20050;-53
2024/03/22 06:44:20;;;;;;;2.80;2.20;;;13.00;99.90;;;;;;4131029;28;20046;-54
2024/03/22 06:46:21;;;;;;;2.33;1.38;;;13.10;99.90;;;;;;4130488;28;20039;-53
2024/03/22 06:48:23;;;;;;;4.22;2.25;;;13.20;99.90;;;;;;4130098;28;20063;-55
2024/03/22 06:50:24;;;;;;;3.17;1.88;;;13.30;99.70;;;;;;4130390;28;20050;-55
2024/03/22 06:52:28;;;;;;;3.47;1.70;;;13.40;99.70;;;;;;4130282;28;20054;-53
2024/03/22 06:54:31;;;;;;;2.97;1.48;;;13.40;99.50;;;;;;4130180;28;20050;-53
2024/03/22 06:56:32;;;;;;;4.05;1.65;;;13.40;99.20;;;;;;4130186;28;20050;-53
2024/03/22 06:58:34;;;;;;;5.28;2.08;;;13.50;99.20;;;;;;4130750;28;20504;-54
2024/03/22 07:00:38;;;;;;;7.20;2.22;;;13.40;99.20;;;;;;4130609;28;20073;-54
2024/03/22 07:02:40;;;;;;;2.90;1.60;;;13.50;99.20;;;;;;4130174;28;20486;-53
2024/03/22 07:04:41;;;;;;;6.90;3.03;;;13.50;99.10;;;;;;4130449;28;20042;-53
2024/03/22 07:06:42;;;;;;;3.85;1.90;;;13.50;99.20;;;;;;4130462;28;20406;-53
2024/03/22 07:08:44;;;;;;;7.38;2.20;;;13.60;99.00;;;;;;4130388;28;20109;-54
2024/03/22 07:10:45;;;;;;;3.08;1.60;;;13.60;98.90;;;;;;4130439;28;20061;-54
2024/03/22 07:12:49;;;;;;;2.75;2.28;;;13.50;98.90;;;;;;4130216;28;20054;-54
2024/03/22 07:14:51;;;;;;;4.93;1.90;;;13.60;99.10;;;;;;4132435;28;20062;-53
2024/03/22 07:16:54;;;;;;;8.00;2.05;;;13.60;99.10;;;;;;4133142;28;20058;-54
2024/03/22 07:18:55;;;;;;;6.68;1.92;;;13.60;99.00;;;;;;4133305;28;20050;-58
2024/03/22 07:21:01;;;;;;;6.45;3.00;;;13.70;99.30;;;;;;4133704;28;20069;-56
2024/03/22 07:23:04;;;;;;;3.22;1.65;;;13.70;99.00;;;;;;4133401;28;20061;-55
2024/03/22 07:25:11;;;;;;;10.18;2.75;;;13.80;99.00;;;;;;4117452;28;20047;-54
2024/03/22 07:27:13;;;;;;;4.15;1.92;;;13.80;98.90;;;;;;4133207;28;20056;-55
2024/03/22 07:29:15;;;;;;;5.90;3.72;;;13.80;98.90;;;;;;4133220;28;20050;-54
2024/03/22 07:31:17;;;;;;;4.20;2.50;;;13.90;98.80;;;;;;4132741;28;20054;-53
2024/03/22 07:33:19;;;;;;;4.60;2.00;;;14.00;99.00;;;;;;4133525;28;20100;-55
2024/03/22 07:35:21;;;;;;;3.38;2.60;;;14.10;98.70;;;;;;4133052;28;20073;-55
2024/03/22 07:37:22;;;;;;;5.38;2.83;;;14.30;98.70;;;;;;4133089;28;20049;-54
2024/03/22 07:39:24;;;;;;;4.78;2.80;;;14.40;98.30;;;;;;4133128;28;20401;-55
2024/03/22 07:41:25;;;;;;;4.63;1.80;;;14.50;98.20;;;;;;4133190;28;20409;-54
2024/03/22 07:43:27;;;;;;;3.22;2.05;;;14.60;98.10;;;;;;4132943;28;20054;-54
2024/03/22 07:45:28;;;;;;;2.78;1.73;;;14.80;97.90;;;;;;4132986;28;20046;-54
2024/03/22 07:47:29;;;;;;;4.72;2.50;;;15.10;97.40;;;;;;4132577;28;20073;-57
2024/03/22 07:49:34;;;;;;;3.42;1.85;;;15.20;97.40;;;;;;4134862;28;20043;-54
2024/03/22 07:51:35;;;;;;;8.23;3.47;;;15.30;97.30;;;;;;4135040;28;20062;-57
2024/03/22 07:53:36;;;;;;;3.15;2.17;;;15.40;96.90;;;;;;4118697;28;20055;-55
2024/03/22 07:55:37;;;;;;;4.45;2.38;;;15.40;96.60;;;;;;4133420;28;20056;-54
2024/03/22 07:57:39;;;;;;;3.67;2.40;;;15.50;96.60;;;;;;4133281;28;20042;-54
2024/03/22 07:59:40;;;;;;;5.30;2.20;;;15.60;96.80;;;;;;4134562;28;20050;-55
2024/03/22 08:01:41;;;;;;;4.22;1.75;;;15.70;96.60;;;;;;4133998;28;20051;-55
2024/03/22 08:03:43;;;;;;;6.20;2.92;;;15.70;96.30;;;;;;4133956;28;20047;-56
2024/03/22 08:05:46;;;;;;;5.28;2.03;;;15.90;96.60;;;;;;4132959;28;20064;-55
2024/03/22 08:07:47;;;;;;;3.63;2.22;;;16.10;96.40;;;;;;4132848;28;20068;-55
2024/03/22 08:09:49;;;;;;;4.05;1.92;;;16.00;95.90;;;;;;4116624;28;20053;-54
2024/03/22 08:11:50;;;;;;;3.00;1.95;;;16.20;95.60;;;;;;4133056;28;20058;-54
2024/03/22 08:13:52;;;;;;;4.10;2.88;;;16.50;95.70;;;;;;4132854;28;20054;-55
2024/03/22 08:15:54;;;;;;;4.70;2.40;;;16.60;95.30;;;;;;4132205;28;20065;-63
2024/03/22 08:17:57;;;;;;;6.57;2.05;;;16.60;95.10;;;;;;4132316;28;20042;-56
2024/03/22 08:19:58;;;;;;;3.35;1.60;;;16.80;95.20;;;;;;4132337;28;20046;-56
2024/03/22 08:22:01;;;;;;;3.38;1.73;;;17.10;94.80;;;;;;4132443;28;20056;-55
2024/03/22 08:24:03;;;;;;;5.32;1.73;;;17.20;94.50;;;;;;4132362;28;20096;-56
2024/03/22 08:26:05;;;;;;;5.05;1.95;;;17.20;94.60;;;;;;4130997;28;20054;-54
2024/03/22 08:28:06;;;;;;;6.10;1.70;;;17.00;94.40;;;;;;4131999;28;20080;-55
2024/03/22 08:30:09;;;;;;;15.23;2.33;;;17.10;94.70;;;;;;4132006;28;20054;-54
2024/03/22 08:32:10;;;;;;;4.10;2.70;;;17.20;94.20;;;;;;4132202;28;20518;-54
2024/03/22 08:34:12;;;;;;;4.78;2.65;;;17.10;94.10;;;;;;4132414;28;20429;-55
2024/03/22 08:36:23;;;;;;;3.22;2.05;;;17.00;94.10;;;;;;4117074;28;20050;-55
2024/03/22 08:38:29;;;;;;;2.25;1.38;;;17.00;94.60;;;;;;4117089;28;20043;-62
2024/03/22 08:40:30;;;;;;;3.53;1.85;;;16.90;94.70;;;;;;4133229;28;20050;-54
2024/03/22 08:42:32;;;;;;;3.65;2.03;;;16.90;94.60;;;;;;4132238;28;20054;-55
2024/03/22 08:44:33;;;;;;;3.65;1.95;;;16.80;94.80;;;;;;4132054;28;20046;-54
2024/03/22 08:46:35;;;;;;;7.00;1.98;;;16.90;94.90;;;;;;4132055;28;20057;-54
2024/03/22 08:48:37;;;;;;;2.47;1.80;;;16.70;94.80;;;;;;4131746;28;20058;-53
2024/03/22 08:50:38;;;;;;;2.95;1.52;;;16.60;94.70;;;;;;4131650;28;20548;-54
2024/03/22 08:52:39;;;;;;;5.07;1.90;;;16.40;95.20;;;;;;4131901;28;20061;-55
2024/03/22 08:54:42;;;;;;;3.97;1.35;;;16.50;95.40;;;;;;4131763;28;20046;-55
2024/03/22 08:56:44;;;;;;;2.60;2.17;;;16.50;95.40;;;;;;4115832;28;20105;-56
2024/03/22 08:58:45;;;;;;;3.55;2.33;;;16.60;95.40;;;;;;4131555;28;20076;-58
2024/03/22 09:00:47;;;;;;;3.60;1.83;;;16.60;95.50;;;;;;4131675;28;20057;-55
2024/03/22 09:02:49;;;;;;;2.65;1.67;;;16.50;95.30;;;;;;4131692;28;20461;-55
2024/03/22 09:04:51;;;;;;;2.95;1.58;;;16.40;95.40;;;;;;4131451;28;20056;-55
2024/03/22 09:06:52;;;;;;;2.22;1.48;;;16.50;95.60;;;;;;4131626;28;20050;-54
2024/03/22 09:08:57;;;;;;;3.10;1.48;;;16.60;95.40;;;;;;4131553;28;20217;-54
2024/03/22 09:11:00;;;;;;;2.65;1.40;;;16.50;95.10;;;;;;4131336;28;20058;-54
2024/03/22 09:13:02;;;;;;;2.88;1.92;;;16.40;95.10;;;;;;4131031;28;20058;-53
2024/03/22 09:15:05;;;;;;;7.32;2.90;;;16.40;95.40;;;;;;4131589;28;20052;-54
2024/03/22 09:17:07;;;;;;;3.08;1.77;;;16.40;95.10;;;;;;4131248;28;20055;-56
2024/03/22 09:19:08;;;;;;;4.15;2.38;;;16.20;95.80;;;;;;4131172;28;20058;-54
2024/03/22 09:21:10;;;;;;;2.38;1.70;;;16.30;96.00;;;;;;4131334;28;20474;-54
2024/03/22 09:23:12;;;;;;;2.72;2.08;;;16.50;95.90;;;;;;4131254;28;20410;-54
2024/03/22 09:25:14;;;;;;;6.78;2.97;;;16.40;95.50;;;;;;4131106;28;20061;-55
2024/03/22 09:27:16;;;;;;;4.30;2.40;;;16.30;95.50;;;;;;4130973;28;20060;-54
2024/03/22 09:29:18;;;;;;;5.88;3.10;;;16.30;95.70;;;;;;4131141;28;20077;-55
2024/03/22 09:31:19;;;;;;;4.22;2.67;;;16.30;95.80;;;;;;4131152;28;20539;-55
2024/03/22 09:33:21;;;;;;;6.60;2.80;;;16.20;95.50;;;;;;4131382;28;20421;-55
2024/03/22 09:35:22;;;;;;;7.95;2.78;;;16.00;96.30;;;;;;4131880;28;20050;-55
2024/03/22 09:37:23;;;;;;;11.63;3.10;;;15.80;96.20;;;;;;4131563;28;20051;-54
2024/03/22 09:39:26;;;;;;;6.28;3.35;;;15.90;96.60;;;;;;4131283;28;20052;-54
2024/03/22 09:41:31;;;;;;;5.57;2.50;;;15.70;96.30;;;;;;4131223;28;20445;-55
2024/03/22 09:43:35;;;;;;;8.05;2.80;;;15.70;96.50;;;;;;4131064;28;20057;-55
2024/03/22 09:45:37;;;;;;;6.25;2.92;;;15.50;96.60;;;;;;4130990;28;20059;-55
2024/03/22 09:47:39;;;;;;;4.82;1.98;;;15.30;96.60;;;;;;4131102;28;20050;-54
2024/03/22 09:49:43;;;;;;;6.45;4.03;;;15.20;96.90;;;;;;4132111;28;20050;-52
2024/03/22 09:51:45;;;;;;;3.08;2.15;;;15.30;97.00;;;;;;4131525;28;20050;-55
2024/03/22 09:53:50;;;;;;;1.98;1.48;;;15.10;96.90;;;;;;4114639;28;20082;-55
2024/03/22 09:55:51;;;;;;;4.20;2.58;;;15.10;97.30;;;;;;4131021;28;20042;-57
2024/03/22 09:57:53;;;;;;;5.10;2.03;;;15.20;97.30;;;;;;4130845;28;20563;-52
2024/03/22 09:59:56;;;;;;;4.88;2.92;;;15.20;97.00;;;;;;4130676;28;20052;-53
2024/03/22 10:02:00;;;;;;;2.67;1.60;;;15.30;96.80;;;;;;4130748;28;20049;-53
2024/03/22 10:04:01;;;;;;;4.47;2.28;;;15.30;97.10;;;;;;4130530;28;20052;-57
2024/03/22 10:06:03;;;;;;;2.92;2.28;;;15.30;96.70;;;;;;4130538;28;20060;-56
2024/03/22 10:08:05;;;;;;;4.43;2.25;;;15.10;96.40;;;;;;4130453;28;20054;-56
2024/03/22 10:10:07;;;;;;;4.25;1.70;;;15.10;96.80;;;;;;4130493;28;20085;-54
2024/03/22 10:12:09;;;;;;;4.90;1.58;;;15.10;96.70;;;;;;4130229;28;20054;-54
2024/03/22 10:14:11;;;;;;;3.55;1.58;;;15.30;96.70;;;;;;4130799;28;20146;-56
2024/03/22 10:16:13;;;;;;;2.10;1.30;;;15.50;96.60;;;;;;4114982;28;20054;-58
2024/03/22 10:18:18;;;;;;;2.97;2.10;;;15.60;96.60;;;;;;4131441;28;20506;-56
2024/03/22 10:20:29;;;;;;;3.92;1.77;;;15.70;96.50;;;;;;4131935;28;20072;-57
2024/03/22 10:22:40;;;;;;;3.78;2.42;;;15.90;96.50;;;;;;4131253;28;20054;-58
2024/03/22 10:24:42;;;;;;;4.28;2.03;;;16.00;96.20;;;;;;4131633;28;20480;-57
2024/03/22 10:26:49;;;;;;;7.78;2.80;;;16.00;96.20;;;;;;4131170;28;20047;-56
2024/03/22 10:28:50;;;;;;;2.60;1.45;;;16.10;95.90;;;;;;4131442;28;20046;-58
2024/03/22 10:30:55;;;;;;;7.78;2.30;;;16.20;96.10;;;;;;4131896;28;20528;-55
2024/03/22 10:32:58;;;;;;;4.15;2.15;;;16.20;95.70;;;;;;4133829;28;20055;-53